Terminal Aerodrome Forecast
Issued by NWS

Home | Current Version | Previous Version | Text Only | Print | Product List | Glossary On
Versions: 1 2 3 4 5 6 7 8 9 10 11 12 13 14 15 16 17 18 19 20 21 22 23 24 25 26 27 28 29 30 31 32 33 34 35 36 37
000
FTUS44 KMOB 170526
TAFBFM
TAF
KBFM 170526Z 1706/1806 14006KT 5SM BR BKN025
     FM171600 17008KT P6SM SCT030
     FM180200 16003KT 4SM BR FEW004 BKN050=

USA.gov is the U.S. government's official web portal to all federal, state and local government web resources and services.